This is the latest recevied weather packets stored in our database for station/object KQ4PPF. If no packets are shown the sender has not sent any weather packets the latest 10 day(s).
| Time | Temp. | Humidity | Pressure | Rain* | Wind** | Luminosity | Snow |
|---|---|---|---|---|---|---|---|
| 1777930597 | 25° C | 49% | 1012.2 hPa | 0 mm | - | 259 W/m² | - |
| 1777930293 | 25° C | 49% | 1012.2 hPa | 0 mm | - | 69 W/m² | - |
| 1777929990 | 25° C | 48% | 1012.4 hPa | 0 mm | - | 59 W/m² | - |
| 1777929687 | 25° C | 48% | 1012.3 hPa | 0 mm | - | 64 W/m² | - |
| 1777929384 | 25° C | 49% | 1012.3 hPa | 0 mm | - | 63 W/m² | - |
| 1777929080 | 25° C | 48% | 1012.3 hPa | 0 mm | - | 63 W/m² | - |
| 1777928778 | 25° C | 47% | 1012.4 hPa | 0 mm | - | 57 W/m² | - |
| 1777928469 | 24.44° C | 48% | 1012.3 hPa | 0 mm | - | 58 W/m² | - |
| 1777928166 | 24.44° C | 49% | 1012.5 hPa | 0 mm | - | 55 W/m² | - |
| 1777927864 | 25° C | 47% | 1012.7 hPa | 0 mm | - | 57 W/m² | - |
| 1777927561 | 25° C | 48% | 1012.5 hPa | 0 mm | - | 58 W/m² | - |
| 1777927260 | 25° C | 48% | 1012.6 hPa | 0 mm | - | 74 W/m² | - |
| 1777926958 | 24.44° C | 46% | 1012.7 hPa | 0 mm | - | 70 W/m² | - |
| 1777926655 | 25° C | 48% | 1012.7 hPa | 0 mm | - | 75 W/m² | - |
| 1777926350 | 25° C | 48% | 1012.7 hPa | 0 mm | - | 75 W/m² | - |
| 1777926049 | 24.44° C | 46% | 1012.9 hPa | 0 mm | - | 81 W/m² | - |
| 1777925745 | 24.44° C | 49% | 1012.8 hPa | 0 mm | - | 97 W/m² | - |
| 1777925443 | 24.44° C | 48% | 1012.7 hPa | 0 mm | - | 92 W/m² | - |
| 1777925138 | 25° C | 46% | 1012.9 hPa | 0 mm | - | 92 W/m² | - |
| 1777924836 | 24.44° C | 47% | 1012.9 hPa | 0 mm | - | 93 W/m² | - |
| 1777924532 | 25° C | 46% | 1013 hPa | 0 mm | - | 88 W/m² | - |
| 1777924228 | 25° C | 46% | 1013 hPa | 0 mm | - | 90 W/m² | - |
| 1777923925 | 25° C | 45% | 1013.3 hPa | 0 mm | - | 90 W/m² | - |
| 1777923620 | 25° C | 47% | 1013.2 hPa | 0 mm | - | 98 W/m² | - |
| 1777923317 | 24.44° C | 50% | 1013.2 hPa | 0 mm | - | 110 W/m² | - |
* Rain latest hour (hover to see other rain measurements)
** Current wind speed in m/s (hover to see current wind gust speed)